createdAt,value
2018-10-12T00:00:42.961Z,16.91
2018-10-12T00:01:42.956Z,16.81
2018-10-12T00:02:42.957Z,16.90
2018-10-12T00:03:42.961Z,16.83
2018-10-12T00:04:42.956Z,16.76
2018-10-12T00:05:42.951Z,16.74
2018-10-12T00:06:43.000Z,16.79
2018-10-12T00:07:42.951Z,16.72
2018-10-12T00:08:42.953Z,16.71
2018-10-12T00:09:42.954Z,16.65
2018-10-12T00:10:42.946Z,16.72
2018-10-12T00:11:43.708Z,16.64
2018-10-12T00:12:42.943Z,16.68
2018-10-12T00:13:42.950Z,16.65
2018-10-12T00:14:42.941Z,16.74
2018-10-12T00:15:42.940Z,16.68
2018-10-12T00:16:42.939Z,16.58
2018-10-12T00:17:42.938Z,16.64
2018-10-12T00:18:42.940Z,16.60
2018-10-12T00:19:42.936Z,16.49
2018-10-12T00:20:42.939Z,16.49
2018-10-12T00:21:42.932Z,16.53
2018-10-12T00:22:42.942Z,16.46
2018-10-12T00:23:42.932Z,16.46
2018-10-12T00:24:42.926Z,16.42
2018-10-12T00:25:42.925Z,16.47
2018-10-12T00:26:42.920Z,16.39
2018-10-12T00:27:42.922Z,16.42
2018-10-12T00:28:42.919Z,16.38
2018-10-12T00:29:42.922Z,16.36
2018-10-12T00:30:42.919Z,16.32
2018-10-12T00:31:42.918Z,16.35
2018-10-12T00:32:42.919Z,16.33
2018-10-12T00:33:42.919Z,16.38
2018-10-12T00:34:42.916Z,16.24
2018-10-12T00:35:42.912Z,16.20
2018-10-12T00:36:42.913Z,16.33
2018-10-12T00:37:42.908Z,16.26
2018-10-12T00:38:42.909Z,16.31
2018-10-12T00:39:42.906Z,16.28
2018-10-12T00:40:42.905Z,16.20
2018-10-12T00:41:42.902Z,16.10
2018-10-12T00:42:42.901Z,16.17
2018-10-12T00:43:43.721Z,16.12
2018-10-12T00:44:42.902Z,16.10
2018-10-12T00:45:42.900Z,16.09
2018-10-12T00:46:42.895Z,16.00
2018-10-12T00:47:42.904Z,15.97
2018-10-12T00:48:42.889Z,15.98
2018-10-12T00:49:42.920Z,15.94
2018-10-12T00:50:42.888Z,15.90
2018-10-12T00:51:42.890Z,15.90
2018-10-12T00:52:42.885Z,15.88
2018-10-12T00:53:42.894Z,15.86
2018-10-12T00:54:42.882Z,15.95
2018-10-12T00:55:42.882Z,16.01
2018-10-12T00:56:42.881Z,15.84
2018-10-12T00:57:42.876Z,15.88
2018-10-12T00:58:42.875Z,15.98
2018-10-12T00:59:42.881Z,15.84
2018-10-12T01:00:42.869Z,15.92
2018-10-12T01:01:42.870Z,15.79
2018-10-12T01:02:42.869Z,15.82
2018-10-12T01:03:42.871Z,15.77
2018-10-12T01:04:42.863Z,15.70
2018-10-12T01:05:42.864Z,15.61
2018-10-12T01:06:42.928Z,15.65
2018-10-12T01:07:42.861Z,15.67
2018-10-12T01:08:42.861Z,15.64
2018-10-12T01:09:42.864Z,15.61
2018-10-12T01:10:42.857Z,15.64
2018-10-12T01:11:42.862Z,15.58
2018-10-12T01:12:42.854Z,15.51
2018-10-12T01:13:42.847Z,15.54
2018-10-12T01:14:42.846Z,15.59
2018-10-12T01:15:42.848Z,15.57
2018-10-12T01:16:42.845Z,15.61
2018-10-12T01:17:42.845Z,15.57
2018-10-12T01:18:42.843Z,15.61
2018-10-12T01:19:42.846Z,15.49
2018-10-12T01:20:42.842Z,15.55
2018-10-12T01:21:42.835Z,15.52
2018-10-12T01:22:42.836Z,15.52
2018-10-12T01:23:42.833Z,15.57
2018-10-12T01:24:42.836Z,15.57
2018-10-12T01:25:42.825Z,15.43
2018-10-12T01:26:42.826Z,15.40
2018-10-12T01:27:42.829Z,15.40
2018-10-12T01:28:42.825Z,15.43
2018-10-12T01:29:42.826Z,15.37
2018-10-12T01:30:42.822Z,15.42
2018-10-12T01:31:42.819Z,15.49
2018-10-12T01:32:42.823Z,15.47
2018-10-12T01:33:42.814Z,15.43
2018-10-12T01:34:42.814Z,15.39
2018-10-12T01:35:42.814Z,15.42
2018-10-12T01:36:42.813Z,15.40
2018-10-12T01:37:42.810Z,15.33
2018-10-12T01:38:42.808Z,15.39
2018-10-12T01:39:42.804Z,15.29
2018-10-12T01:40:42.800Z,15.27
2018-10-12T01:41:42.808Z,15.24
2018-10-12T01:42:42.798Z,15.25
2018-10-12T01:43:42.798Z,15.28
2018-10-12T01:44:42.796Z,15.19
2018-10-12T01:45:42.800Z,15.35
2018-10-12T01:46:42.788Z,15.37
2018-10-12T01:47:42.789Z,15.31
2018-10-12T01:48:42.791Z,15.35
2018-10-12T01:49:42.781Z,15.22
2018-10-12T01:50:42.790Z,15.29
2018-10-12T01:51:42.790Z,15.22
2018-10-12T01:52:42.779Z,15.25
2018-10-12T01:53:42.777Z,15.15
2018-10-12T01:54:42.774Z,15.11
2018-10-12T01:55:42.772Z,15.19
2018-10-12T01:56:42.769Z,15.19
2018-10-12T01:57:42.767Z,15.14
2018-10-12T01:58:42.764Z,15.15
2018-10-12T01:59:42.765Z,15.11
2018-10-12T02:00:42.761Z,15.07
2018-10-12T02:01:42.762Z,15.06
2018-10-12T02:02:42.758Z,15.00
2018-10-12T02:03:42.759Z,15.00
2018-10-12T02:04:42.758Z,15.00
2018-10-12T02:05:42.749Z,14.94
2018-10-12T02:06:42.750Z,15.02
2018-10-12T02:07:42.755Z,15.04
2018-10-12T02:08:42.749Z,15.02
2018-10-12T02:09:42.745Z,15.07
2018-10-12T02:10:42.753Z,15.03
2018-10-12T02:11:42.748Z,14.89
2018-10-12T02:12:42.755Z,14.94
2018-10-12T02:13:42.736Z,14.85
2018-10-12T02:14:42.729Z,14.84
2018-10-12T02:15:42.733Z,14.85
2018-10-12T02:16:42.731Z,14.79
2018-10-12T02:17:42.728Z,14.82
2018-10-12T02:18:42.728Z,14.72
2018-10-12T02:19:42.735Z,14.72
2018-10-12T02:20:42.721Z,14.84
2018-10-12T02:21:42.717Z,14.91
2018-10-12T02:22:42.725Z,14.88
2018-10-12T02:23:42.718Z,14.89
2018-10-12T02:24:42.710Z,14.92
2018-10-12T02:25:42.710Z,14.99
2018-10-12T02:26:42.707Z,14.89
2018-10-12T02:27:42.710Z,14.86
2018-10-12T02:28:42.712Z,14.84
2018-10-12T02:29:42.700Z,14.70
2018-10-12T02:30:42.699Z,14.77
2018-10-12T02:31:42.701Z,14.73
2018-10-12T02:32:42.692Z,14.73
2018-10-12T02:33:42.691Z,14.70
2018-10-12T02:34:42.699Z,14.77
2018-10-12T02:35:42.695Z,14.66
2018-10-12T02:36:42.697Z,14.66
2018-10-12T02:37:42.683Z,14.65
2018-10-12T02:38:42.713Z,14.59
2018-10-12T02:39:42.681Z,14.54
2018-10-12T02:40:42.681Z,14.54
2018-10-12T02:41:42.679Z,14.59
2018-10-12T02:42:42.675Z,14.51
2018-10-12T02:43:42.672Z,14.53
2018-10-12T02:44:42.666Z,14.54
2018-10-12T02:45:42.668Z,14.48
2018-10-12T02:46:42.668Z,14.47
2018-10-12T02:47:42.662Z,14.50
2018-10-12T02:48:42.663Z,14.53
2018-10-12T02:49:42.660Z,14.40
2018-10-12T02:50:42.653Z,14.45
2018-10-12T02:51:42.651Z,14.43
2018-10-12T02:52:42.648Z,14.41
2018-10-12T02:53:42.645Z,14.41
2018-10-12T02:54:42.652Z,14.50
2018-10-12T02:55:42.641Z,14.53
2018-10-12T02:56:42.639Z,14.51
2018-10-12T02:57:42.647Z,14.60
2018-10-12T02:58:42.636Z,14.58
2018-10-12T02:59:42.628Z,14.51
2018-10-12T03:00:42.628Z,14.55
2018-10-12T03:01:42.627Z,14.55
2018-10-12T03:02:42.632Z,14.48
2018-10-12T03:03:42.620Z,14.36
2018-10-12T03:04:42.619Z,14.43
2018-10-12T03:05:42.618Z,14.51
2018-10-12T03:06:42.612Z,14.47
2018-10-12T03:07:42.612Z,14.58
2018-10-12T03:08:42.613Z,14.53
2018-10-12T03:09:42.606Z,14.55
2018-10-12T03:10:42.604Z,14.47
2018-10-12T03:11:42.607Z,14.53
2018-10-12T03:12:42.596Z,14.53
2018-10-12T03:13:42.596Z,14.37
2018-10-12T03:14:42.596Z,14.54
2018-10-12T03:15:42.594Z,14.50
2018-10-12T03:16:42.593Z,14.41
2018-10-12T03:17:42.588Z,14.36
2018-10-12T03:18:42.585Z,14.43
2018-10-12T03:19:42.590Z,14.37
2018-10-12T03:20:42.577Z,14.43
2018-10-12T03:21:42.578Z,14.37
2018-10-12T03:22:42.575Z,14.41
2018-10-12T03:23:42.574Z,14.43
2018-10-12T03:24:42.570Z,14.47
2018-10-12T03:25:42.564Z,14.45
2018-10-12T03:26:42.561Z,14.29
2018-10-12T03:27:42.564Z,14.35
2018-10-12T03:28:42.555Z,14.33
2018-10-12T03:29:42.556Z,14.33
2018-10-12T03:30:42.556Z,14.25
2018-10-12T03:31:42.546Z,14.23
2018-10-12T03:32:42.547Z,14.32
2018-10-12T03:33:42.549Z,14.35
2018-10-12T03:34:42.541Z,14.25
2018-10-12T03:35:42.538Z,14.28
2018-10-12T03:36:42.538Z,14.29
2018-10-12T03:37:42.535Z,14.25
2018-10-12T03:38:42.559Z,14.14
2018-10-12T03:39:42.532Z,14.05
2018-10-12T03:40:42.530Z,14.10
2018-10-12T03:41:42.524Z,13.95
2018-10-12T03:42:42.517Z,13.92
2018-10-12T03:43:42.518Z,13.89
2018-10-12T03:44:42.519Z,13.96
2018-10-12T03:45:42.510Z,13.81
2018-10-12T03:46:42.509Z,13.87
2018-10-12T03:47:42.522Z,13.78
2018-10-12T03:48:42.505Z,13.89
2018-10-12T03:49:42.508Z,13.85
2018-10-12T03:50:42.501Z,13.90
2018-10-12T03:51:42.500Z,13.87
2018-10-12T03:52:42.498Z,13.87
2018-10-12T03:53:42.488Z,13.83
2018-10-12T03:54:42.493Z,13.81
2018-10-12T03:55:42.486Z,13.86
2018-10-12T03:56:42.487Z,13.87
2018-10-12T03:57:42.482Z,13.81
2018-10-12T03:58:42.478Z,13.77
2018-10-12T03:59:42.475Z,13.77
2018-10-12T04:00:42.474Z,13.71
2018-10-12T04:01:42.470Z,13.74
2018-10-12T04:02:42.517Z,13.63
2018-10-12T04:03:42.468Z,13.70
2018-10-12T04:04:42.463Z,13.70
2018-10-12T04:05:42.458Z,13.63
2018-10-12T04:06:42.455Z,13.57
2018-10-12T04:07:42.455Z,13.59
2018-10-12T04:08:42.452Z,13.50
2018-10-12T04:09:42.447Z,13.53
2018-10-12T04:10:42.452Z,13.62
2018-10-12T04:11:42.441Z,13.59
2018-10-12T04:12:42.560Z,13.67
2018-10-12T04:13:42.440Z,13.68
2018-10-12T04:14:42.480Z,13.70
2018-10-12T04:15:42.432Z,13.65
2018-10-12T04:16:42.426Z,13.60
2018-10-12T04:17:42.420Z,13.68
2018-10-12T04:18:42.425Z,13.70
2018-10-12T04:19:42.425Z,13.71
2018-10-12T04:20:42.413Z,13.68
2018-10-12T04:21:42.413Z,13.72
2018-10-12T04:22:42.409Z,13.65
2018-10-12T04:23:42.424Z,13.79
2018-10-12T04:24:42.410Z,13.62
2018-10-12T04:25:42.412Z,13.75
2018-10-12T04:26:42.397Z,13.72
2018-10-12T04:27:42.401Z,13.83
2018-10-12T04:28:42.395Z,13.79
2018-10-12T04:29:42.399Z,13.72
2018-10-12T04:30:42.391Z,13.65
2018-10-12T04:31:42.400Z,13.67
2018-10-12T04:32:42.377Z,13.65
2018-10-12T04:33:42.375Z,13.63
2018-10-12T04:34:42.379Z,13.53
2018-10-12T04:35:42.395Z,13.60
2018-10-12T04:36:42.380Z,13.57
2018-10-12T04:37:42.368Z,13.56
2018-10-12T04:38:42.365Z,13.49
2018-10-12T04:39:42.360Z,13.42
2018-10-12T04:40:42.354Z,13.41
2018-10-12T04:41:42.357Z,13.31
2018-10-12T04:42:42.357Z,13.18
2018-10-12T04:43:42.362Z,13.27
2018-10-12T04:44:42.346Z,13.16
2018-10-12T04:45:42.349Z,13.12
2018-10-12T04:46:42.389Z,13.16
2018-10-12T04:47:42.341Z,13.13
2018-10-12T04:48:42.336Z,13.08
2018-10-12T04:49:42.329Z,13.12
2018-10-12T04:50:42.334Z,13.19
2018-10-12T04:51:42.330Z,13.09
2018-10-12T04:52:42.318Z,13.13
2018-10-12T04:53:42.379Z,13.00
2018-10-12T04:54:42.313Z,12.97
2018-10-12T04:55:42.314Z,13.01
2018-10-12T04:56:42.308Z,13.13
2018-10-12T04:57:42.314Z,13.12
2018-10-12T04:58:42.309Z,13.12
2018-10-12T04:59:42.302Z,13.15
2018-10-12T05:00:42.335Z,13.18
2018-10-12T05:01:42.293Z,13.12
2018-10-12T05:02:42.293Z,13.12
2018-10-12T05:03:42.293Z,13.13
2018-10-12T05:04:42.286Z,13.15
2018-10-12T05:05:42.278Z,13.03
2018-10-12T05:06:42.283Z,13.11
2018-10-12T05:07:42.283Z,13.09
2018-10-12T05:08:42.271Z,13.04
2018-10-12T05:09:42.795Z,13.04
2018-10-12T05:10:42.265Z,12.95
2018-10-12T05:11:42.278Z,12.95
2018-10-12T05:12:42.260Z,12.87
2018-10-12T05:13:42.259Z,12.90
2018-10-12T05:14:42.254Z,12.85
2018-10-12T05:15:42.251Z,12.90
2018-10-12T05:16:42.255Z,12.80
2018-10-12T05:17:42.243Z,12.83
2018-10-12T05:18:42.244Z,12.82
2018-10-12T05:19:42.237Z,12.83
2018-10-12T05:20:42.232Z,12.80
2018-10-12T05:21:42.230Z,12.83
2018-10-12T05:22:42.231Z,12.97
2018-10-12T05:23:42.226Z,12.90
2018-10-12T05:24:42.224Z,12.83
2018-10-12T05:25:42.223Z,12.82
2018-10-12T05:26:42.216Z,12.83
2018-10-12T05:27:42.211Z,12.79
2018-10-12T05:28:42.211Z,12.78
2018-10-12T05:29:42.203Z,12.82
2018-10-12T05:30:42.205Z,12.75
2018-10-12T05:31:42.199Z,12.73
2018-10-12T05:32:42.195Z,12.75
2018-10-12T05:33:42.192Z,12.75
2018-10-12T05:34:42.187Z,12.61
2018-10-12T05:35:42.185Z,12.65
2018-10-12T05:36:42.181Z,12.64
2018-10-12T05:37:42.176Z,12.68
2018-10-12T05:38:42.172Z,12.65
2018-10-12T05:39:42.170Z,12.64
2018-10-12T05:40:42.168Z,12.64
2018-10-12T05:41:42.168Z,12.67
2018-10-12T05:42:42.215Z,12.62
2018-10-12T05:43:42.219Z,12.62
2018-10-12T05:44:42.156Z,12.64
2018-10-12T05:45:42.149Z,12.65
2018-10-12T05:46:42.147Z,12.75
2018-10-12T05:47:42.143Z,12.79
2018-10-12T05:48:42.183Z,12.78
2018-10-12T05:49:42.138Z,12.78
2018-10-12T05:50:42.135Z,12.79
2018-10-12T05:51:42.132Z,12.90
2018-10-12T05:52:42.132Z,12.90
2018-10-12T05:53:42.126Z,12.93
2018-10-12T05:54:42.128Z,12.97
2018-10-12T05:55:42.145Z,13.03
2018-10-12T05:56:42.108Z,13.04
2018-10-12T05:57:42.125Z,13.08
2018-10-12T05:58:42.101Z,13.01
2018-10-12T05:59:42.102Z,13.04
2018-10-12T06:00:42.097Z,13.01
2018-10-12T06:01:42.092Z,12.97
2018-10-12T06:02:42.096Z,12.95
2018-10-12T06:03:42.092Z,12.95
2018-10-12T06:04:42.090Z,12.97
2018-10-12T06:05:42.081Z,12.91
2018-10-12T06:06:42.077Z,12.98
2018-10-12T06:07:42.811Z,13.01
2018-10-12T06:08:42.072Z,13.01
2018-10-12T06:09:42.175Z,12.98
2018-10-12T06:10:42.066Z,12.98
2018-10-12T06:11:42.065Z,13.03
2018-10-12T06:12:42.061Z,12.94
2018-10-12T06:13:42.057Z,12.94
2018-10-12T06:14:42.053Z,13.01
2018-10-12T06:15:42.132Z,12.95
2018-10-12T06:16:42.045Z,13.09
2018-10-12T06:17:42.047Z,13.15
2018-10-12T06:18:42.041Z,13.11
2018-10-12T06:19:42.038Z,13.12
2018-10-12T06:20:42.028Z,13.16
2018-10-12T06:21:42.079Z,13.16
2018-10-12T06:22:42.025Z,13.30
2018-10-12T06:23:42.023Z,13.20
2018-10-12T06:24:42.026Z,13.33
2018-10-12T06:25:42.015Z,13.33
2018-10-12T06:26:42.026Z,13.33
2018-10-12T06:27:42.015Z,13.33
2018-10-12T06:28:42.008Z,13.44
2018-10-12T06:29:42.009Z,13.44
2018-10-12T06:30:42.002Z,13.50
2018-10-12T06:31:41.995Z,13.53
2018-10-12T06:32:42.032Z,13.57
2018-10-12T06:33:41.990Z,13.62
2018-10-12T06:34:41.987Z,13.67
2018-10-12T06:35:41.990Z,13.68
2018-10-12T06:36:41.979Z,13.71
2018-10-12T06:37:41.977Z,13.77
2018-10-12T06:38:41.984Z,13.75
2018-10-12T06:39:41.969Z,13.79
2018-10-12T06:40:42.006Z,13.86
2018-10-12T06:41:42.131Z,13.85
2018-10-12T06:42:41.960Z,13.97
2018-10-12T06:43:41.963Z,13.97
2018-10-12T06:44:41.958Z,14.05
2018-10-12T06:45:41.952Z,14.05
2018-10-12T06:46:42.084Z,14.10
2018-10-12T06:47:41.949Z,14.08
2018-10-12T06:48:41.943Z,14.11
2018-10-12T06:49:41.947Z,14.26
2018-10-12T06:50:41.937Z,14.26
2018-10-12T06:51:41.938Z,14.37
2018-10-12T06:52:41.929Z,14.44
2018-10-12T06:53:41.982Z,14.50
2018-10-12T06:54:41.940Z,14.47
2018-10-12T06:55:41.923Z,14.53
2018-10-12T06:56:41.924Z,14.51
2018-10-12T06:57:41.925Z,14.59
2018-10-12T06:58:41.918Z,14.65
2018-10-12T06:59:41.922Z,14.66
2018-10-12T07:00:41.914Z,14.72
2018-10-12T07:01:41.908Z,14.72
2018-10-12T07:02:41.905Z,14.69
2018-10-12T07:03:41.910Z,14.78
2018-10-12T07:04:41.900Z,14.88
2018-10-12T07:05:41.946Z,14.86
2018-10-12T07:06:41.895Z,14.99
2018-10-12T07:07:41.896Z,15.04
2018-10-12T07:08:41.889Z,15.03
2018-10-12T07:09:41.890Z,15.02
2018-10-12T07:10:41.892Z,15.07
2018-10-12T07:11:41.884Z,15.11
2018-10-12T07:12:41.880Z,15.14
2018-10-12T07:13:41.905Z,15.11
2018-10-12T07:14:41.876Z,15.22
2018-10-12T07:15:41.872Z,15.27
2018-10-12T07:16:41.871Z,15.29
2018-10-12T07:17:41.874Z,15.28
2018-10-12T07:18:41.868Z,15.37
2018-10-12T07:19:41.939Z,15.42
2018-10-12T07:20:41.860Z,15.47
2018-10-12T07:21:41.858Z,15.47
2018-10-12T07:22:41.855Z,15.55
2018-10-12T07:23:41.850Z,15.64
2018-10-12T07:24:41.851Z,15.61
2018-10-12T07:25:41.917Z,15.70
2018-10-12T07:26:41.852Z,15.72
2018-10-12T07:27:41.846Z,15.64
2018-10-12T07:28:41.840Z,15.84
2018-10-12T07:29:41.842Z,15.83
2018-10-12T07:30:41.839Z,15.92
2018-10-12T07:31:41.916Z,15.86
2018-10-12T07:32:41.833Z,15.90
2018-10-12T07:33:41.830Z,15.94
2018-10-12T07:34:41.950Z,15.94
2018-10-12T07:35:41.829Z,16.09
2018-10-12T07:36:41.826Z,16.08
2018-10-12T07:37:41.873Z,16.15
2018-10-12T07:38:41.822Z,16.17
2018-10-12T07:39:41.823Z,16.17
2018-10-12T07:40:41.811Z,16.16
2018-10-12T07:41:41.815Z,16.24
2018-10-12T07:42:41.812Z,16.26
2018-10-12T07:43:41.813Z,16.24
2018-10-12T07:44:41.811Z,16.35
2018-10-12T07:45:41.812Z,16.36
2018-10-12T07:46:41.804Z,16.43
2018-10-12T07:47:41.805Z,16.43
2018-10-12T07:48:41.803Z,16.54
2018-10-12T07:49:41.795Z,16.42
2018-10-12T07:50:41.795Z,16.56
2018-10-12T07:51:41.794Z,16.56
2018-10-12T07:52:41.790Z,16.75
2018-10-12T07:53:41.804Z,16.69
2018-10-12T07:54:42.418Z,16.69
2018-10-12T07:55:41.785Z,16.75
2018-10-12T07:56:41.790Z,16.79
2018-10-12T07:57:41.784Z,16.79
2018-10-12T07:58:41.980Z,16.89
2018-10-12T07:59:41.779Z,16.81
2018-10-12T08:00:41.800Z,16.83
2018-10-12T08:01:41.773Z,16.87
2018-10-12T08:02:41.774Z,16.97
2018-10-12T08:03:41.773Z,17.04
2018-10-12T08:04:41.766Z,16.99
2018-10-12T08:05:41.768Z,17.09
2018-10-12T08:06:41.832Z,17.09
2018-10-12T08:07:41.766Z,17.19
2018-10-12T08:08:41.770Z,17.23
2018-10-12T08:09:41.805Z,17.33
2018-10-12T08:10:41.763Z,17.30
2018-10-12T08:11:41.760Z,17.42
2018-10-12T08:12:41.757Z,17.44
2018-10-12T08:13:41.830Z,17.48
2018-10-12T08:14:41.756Z,17.56
2018-10-12T08:15:41.752Z,17.56
2018-10-12T08:16:41.751Z,17.59
2018-10-12T08:17:41.752Z,17.54
2018-10-12T08:18:41.747Z,17.56
2018-10-12T08:19:41.746Z,17.56
2018-10-12T08:20:41.746Z,17.59
2018-10-12T08:21:41.743Z,17.64
2018-10-12T08:22:41.744Z,17.54
2018-10-12T08:23:41.744Z,17.64
2018-10-12T08:24:41.738Z,17.59
2018-10-12T08:25:41.739Z,17.68
2018-10-12T08:26:41.737Z,17.70
2018-10-12T08:27:42.351Z,17.72
2018-10-12T08:28:41.735Z,17.79
2018-10-12T08:29:41.733Z,17.82
2018-10-12T08:30:41.740Z,17.82
2018-10-12T08:31:41.742Z,17.87
2018-10-12T08:32:41.727Z,17.95
2018-10-12T08:33:41.736Z,18.05
2018-10-12T08:34:41.735Z,18.01
2018-10-12T08:35:41.725Z,18.00
2018-10-12T08:36:41.725Z,18.04
2018-10-12T08:37:41.724Z,18.03
2018-10-12T08:38:41.727Z,18.11
2018-10-12T08:39:41.726Z,18.11
2018-10-12T08:40:41.719Z,18.15
2018-10-12T08:41:41.748Z,18.13
2018-10-12T08:42:41.719Z,18.10
2018-10-12T08:43:41.720Z,18.25
2018-10-12T08:44:41.718Z,18.28
2018-10-12T08:45:41.713Z,18.28
2018-10-12T08:46:42.356Z,18.38
2018-10-12T08:47:41.717Z,18.29
2018-10-12T08:48:41.716Z,18.35
2018-10-12T08:49:41.711Z,18.40
2018-10-12T08:50:41.714Z,18.34
2018-10-12T08:51:41.708Z,18.45
2018-10-12T08:52:41.707Z,18.47
2018-10-12T08:53:41.712Z,18.50
2018-10-12T08:54:41.711Z,18.58
2018-10-12T08:55:41.708Z,18.62
2018-10-12T08:56:41.701Z,18.56
2018-10-12T08:57:41.709Z,18.68
2018-10-12T08:58:41.709Z,18.88
2018-10-12T08:59:41.705Z,18.73
2018-10-12T09:00:41.716Z,18.75
2018-10-12T09:01:41.698Z,18.80
2018-10-12T09:02:41.698Z,18.81
2018-10-12T09:03:41.700Z,18.78
2018-10-12T09:04:41.707Z,18.81
2018-10-12T09:05:41.694Z,18.83
2018-10-12T09:06:41.700Z,18.90
2018-10-12T09:07:42.362Z,18.90
2018-10-12T09:08:41.698Z,18.95
2018-10-12T09:09:41.720Z,18.92
2018-10-12T09:10:41.700Z,18.95
2018-10-12T09:11:41.696Z,18.99
2018-10-12T09:12:41.700Z,19.00
2018-10-12T09:13:41.691Z,19.02
2018-10-12T09:14:41.697Z,19.07
2018-10-12T09:15:41.698Z,19.18
2018-10-12T09:16:41.693Z,19.24
2018-10-12T09:17:41.691Z,19.31
2018-10-12T09:18:41.694Z,19.26
2018-10-12T09:19:41.695Z,19.37
2018-10-12T09:20:41.775Z,19.47
2018-10-12T09:21:41.722Z,19.49
2018-10-12T09:22:41.693Z,19.51
2018-10-12T09:23:41.687Z,19.54
2018-10-12T09:24:41.686Z,19.51
2018-10-12T09:25:41.698Z,19.69
2018-10-12T09:26:41.697Z,19.66
2018-10-12T09:27:41.692Z,19.67
2018-10-12T09:28:41.710Z,19.71
2018-10-12T09:29:41.686Z,19.81
2018-10-12T09:30:41.685Z,19.84
2018-10-12T09:31:41.687Z,19.96
2018-10-12T09:32:41.690Z,19.95
2018-10-12T09:33:41.691Z,19.94
2018-10-12T09:34:41.688Z,19.96
2018-10-12T09:35:41.685Z,19.99
2018-10-12T09:36:41.767Z,20.00
2018-10-12T09:37:41.704Z,20.02
2018-10-12T09:38:41.684Z,20.02
2018-10-12T09:39:41.684Z,20.06
2018-10-12T09:40:41.684Z,20.03
2018-10-12T09:41:41.686Z,20.03
2018-10-12T09:42:41.688Z,20.04
2018-10-12T09:43:41.687Z,20.09
2018-10-12T09:44:41.691Z,20.02
2018-10-12T09:45:41.690Z,20.04
2018-10-12T09:46:42.377Z,20.04
2018-10-12T09:47:41.685Z,20.02
2018-10-12T09:48:41.684Z,20.04
2018-10-12T09:49:41.684Z,20.13
2018-10-12T09:50:41.687Z,20.13
2018-10-12T09:51:41.699Z,20.16
2018-10-12T09:52:41.718Z,20.28
2018-10-12T09:53:41.690Z,20.24
2018-10-12T09:54:41.690Z,20.39
2018-10-12T09:55:41.687Z,20.52
2018-10-12T09:56:41.684Z,20.59
2018-10-12T09:57:41.683Z,20.48
2018-10-12T09:58:41.688Z,20.50
2018-10-12T09:59:41.695Z,20.47
2018-10-12T10:00:41.683Z,20.52
2018-10-12T10:01:41.698Z,20.51
2018-10-12T10:02:41.693Z,20.58
2018-10-12T10:03:41.693Z,20.59
2018-10-12T10:04:41.684Z,20.65
2018-10-12T10:05:41.684Z,20.66
2018-10-12T10:06:41.692Z,20.72
2018-10-12T10:07:41.773Z,20.74
2018-10-12T10:08:41.768Z,20.78
2018-10-12T10:09:41.688Z,20.88
2018-10-12T10:10:41.686Z,20.97
2018-10-12T10:11:41.690Z,20.96
2018-10-12T10:12:41.697Z,21.02
2018-10-12T10:13:41.706Z,21.03
2018-10-12T10:14:41.694Z,21.05
2018-10-12T10:15:41.695Z,21.14
2018-10-12T10:16:41.702Z,21.15
2018-10-12T10:17:42.386Z,21.15
2018-10-12T10:18:41.693Z,21.36
2018-10-12T10:19:42.462Z,21.36
2018-10-12T10:20:41.697Z,21.32
2018-10-12T10:21:41.693Z,21.33
2018-10-12T10:22:41.699Z,21.42
2018-10-12T10:23:41.702Z,21.37
2018-10-12T10:24:41.698Z,21.50
2018-10-12T10:25:41.695Z,21.45
2018-10-12T10:26:41.699Z,21.46
2018-10-12T10:27:41.703Z,21.55
2018-10-12T10:28:41.696Z,21.61
2018-10-12T10:29:41.701Z,21.67
2018-10-12T10:30:41.705Z,21.69
2018-10-12T10:31:41.708Z,21.69
2018-10-12T10:32:41.698Z,21.70
2018-10-12T10:33:41.701Z,21.69
2018-10-12T10:34:41.705Z,21.77
2018-10-12T10:35:41.707Z,21.69
2018-10-12T10:36:41.704Z,21.89
2018-10-12T10:37:41.702Z,21.91
2018-10-12T10:38:41.704Z,21.93
2018-10-12T10:39:41.710Z,21.92
2018-10-12T10:40:41.718Z,21.91
2018-10-12T10:41:41.704Z,21.98
2018-10-12T10:42:41.712Z,21.93
2018-10-12T10:43:41.712Z,21.96
2018-10-12T10:44:41.709Z,22.10
2018-10-12T10:45:41.714Z,22.18
2018-10-12T10:46:41.716Z,22.29
2018-10-12T10:47:41.716Z,22.23
2018-10-12T10:48:41.716Z,22.17
2018-10-12T10:49:41.726Z,22.25
2018-10-12T10:50:41.715Z,22.25
2018-10-12T10:51:41.716Z,22.29
2018-10-12T10:52:41.717Z,22.26
2018-10-12T10:53:41.735Z,22.30
2018-10-12T10:54:41.728Z,22.35
2018-10-12T10:55:41.723Z,22.33
2018-10-12T10:56:41.721Z,22.35
2018-10-12T10:57:41.726Z,22.43
2018-10-12T10:58:41.731Z,22.43
2018-10-12T10:59:41.726Z,22.41
2018-10-12T11:00:41.871Z,22.39
2018-10-12T11:01:41.729Z,22.36
2018-10-12T11:02:41.731Z,22.43
2018-10-12T11:03:41.733Z,22.41
2018-10-12T11:04:41.731Z,22.50
2018-10-12T11:05:41.735Z,22.44
2018-10-12T11:06:41.735Z,22.48
2018-10-12T11:07:41.742Z,22.57
2018-10-12T11:08:41.745Z,22.51
2018-10-12T11:09:41.742Z,22.65
2018-10-12T11:10:41.754Z,22.75
2018-10-12T11:11:41.738Z,22.76
2018-10-12T11:12:41.873Z,22.69
2018-10-12T11:13:41.747Z,22.87
2018-10-12T11:14:41.745Z,22.88
2018-10-12T11:15:41.747Z,22.94
2018-10-12T11:16:41.744Z,22.96
2018-10-12T11:17:41.746Z,22.96
2018-10-12T11:18:41.750Z,22.96
2018-10-12T11:19:41.814Z,22.98
2018-10-12T11:20:41.754Z,22.91
2018-10-12T11:21:41.760Z,22.94
2018-10-12T11:22:41.773Z,22.99
2018-10-12T11:23:41.758Z,22.99
2018-10-12T11:24:41.811Z,22.98
2018-10-12T11:25:41.760Z,22.93
2018-10-12T11:26:41.805Z,22.94
2018-10-12T11:27:41.772Z,22.94
2018-10-12T11:28:41.764Z,23.03
2018-10-12T11:29:41.773Z,23.03
2018-10-12T11:30:41.770Z,23.08
2018-10-12T11:31:41.776Z,23.23
2018-10-12T11:32:41.816Z,23.18
2018-10-12T11:33:41.775Z,23.28
2018-10-12T11:34:41.773Z,23.34
2018-10-12T11:35:41.777Z,23.47
2018-10-12T11:36:41.781Z,23.44
2018-10-12T11:37:41.782Z,23.48
2018-10-12T11:38:41.782Z,23.47
2018-10-12T11:39:41.785Z,23.46
2018-10-12T11:40:41.793Z,23.51
2018-10-12T11:41:41.789Z,23.50
2018-10-12T11:42:41.794Z,23.51
2018-10-12T11:43:41.794Z,23.51
2018-10-12T11:44:41.845Z,23.50
2018-10-12T11:45:41.797Z,23.50
2018-10-12T11:46:41.797Z,23.59
2018-10-12T11:47:41.803Z,23.59
2018-10-12T11:48:41.796Z,23.65
2018-10-12T11:49:41.801Z,23.66
2018-10-12T11:50:41.806Z,23.71
2018-10-12T11:51:41.805Z,23.76
2018-10-12T11:52:41.804Z,23.71
2018-10-12T11:53:41.833Z,23.73
2018-10-12T11:54:41.815Z,23.76
2018-10-12T11:55:41.822Z,23.74
2018-10-12T11:56:41.817Z,23.73
2018-10-12T11:57:41.823Z,23.81
2018-10-12T11:58:41.818Z,23.87
2018-10-12T11:59:41.824Z,23.86
2018-10-12T12:00:41.824Z,24.01
2018-10-12T12:01:41.826Z,23.91
2018-10-12T12:02:41.828Z,23.92
2018-10-12T12:03:41.838Z,23.86
2018-10-12T12:04:41.828Z,23.88
2018-10-12T12:05:41.837Z,23.87
2018-10-12T12:06:41.843Z,23.86
2018-10-12T12:07:41.839Z,23.87
2018-10-12T12:08:41.851Z,23.87
2018-10-12T12:09:41.848Z,23.96
2018-10-12T12:10:41.845Z,24.05
2018-10-12T12:11:41.847Z,24.06
2018-10-12T12:12:41.850Z,24.11
2018-10-12T12:13:41.956Z,24.05
2018-10-12T12:14:41.854Z,24.02
2018-10-12T12:15:41.856Z,24.18
2018-10-12T12:16:41.862Z,24.14
2018-10-12T12:17:41.858Z,24.14
2018-10-12T12:18:41.862Z,24.14
2018-10-12T12:19:41.863Z,24.26
2018-10-12T12:20:41.866Z,24.36
2018-10-12T12:21:41.867Z,24.30
2018-10-12T12:22:41.873Z,24.30
2018-10-12T12:23:41.876Z,24.42
2018-10-12T12:24:41.877Z,24.39
2018-10-12T12:25:41.880Z,24.35
2018-10-12T12:26:41.879Z,24.38
2018-10-12T12:27:41.888Z,24.33
2018-10-12T12:28:41.884Z,24.29
2018-10-12T12:29:41.890Z,24.26
2018-10-12T12:30:41.888Z,24.32
2018-10-12T12:31:41.897Z,24.33
2018-10-12T12:32:41.896Z,24.28
2018-10-12T12:33:41.904Z,24.18
2018-10-12T12:34:41.937Z,24.21
2018-10-12T12:35:42.292Z,24.24
2018-10-12T12:36:41.912Z,24.17
2018-10-12T12:37:41.904Z,24.30
2018-10-12T12:38:41.908Z,24.32
2018-10-12T12:39:41.917Z,24.30
2018-10-12T12:40:41.915Z,24.35
2018-10-12T12:41:41.977Z,24.32
2018-10-12T12:42:41.920Z,24.35
2018-10-12T12:43:41.919Z,24.28
2018-10-12T12:44:41.922Z,24.32
2018-10-12T12:45:41.930Z,24.36
2018-10-12T12:46:41.934Z,24.47
2018-10-12T12:47:42.083Z,24.39
2018-10-12T12:48:42.309Z,24.48
2018-10-12T12:49:41.961Z,24.47
2018-10-12T12:50:41.947Z,24.45
2018-10-12T12:51:41.948Z,24.47
2018-10-12T12:52:41.949Z,24.48